sensor_id;sensor_type;location;lat;lon;timestamp;pressure;altitude;pressure_sealevel;temperature;humidity
26775;BME280;14362;51.902;7.626;2023-01-31T00:01:24;101673.31;;;4.11;100.00
26775;BME280;14362;51.902;7.626;2023-01-31T00:05:27;101680.97;;;4.04;100.00
26775;BME280;14362;51.902;7.626;2023-01-31T00:09:28;101678.94;;;3.95;100.00
26775;BME280;14362;51.902;7.626;2023-01-31T00:13:30;101670.84;;;3.89;100.00
26775;BME280;14362;51.902;7.626;2023-01-31T00:17:31;101676.56;;;3.82;100.00
26775;BME280;14362;51.902;7.626;2023-01-31T00:21:34;101687.00;;;3.80;100.00
26775;BME280;14362;51.902;7.626;2023-01-31T00:25:36;101682.56;;;3.79;100.00
26775;BME280;14362;51.902;7.626;2023-01-31T00:29:37;101682.28;;;3.76;100.00
26775;BME280;14362;51.902;7.626;2023-01-31T00:33:43;101675.78;;;3.65;100.00
26775;BME280;14362;51.902;7.626;2023-01-31T00:37:46;101685.94;;;3.60;100.00
26775;BME280;14362;51.902;7.626;2023-01-31T00:41:48;101674.25;;;3.53;100.00
26775;BME280;14362;51.902;7.626;2023-01-31T00:45:49;101673.63;;;3.46;100.00
26775;BME280;14362;51.902;7.626;2023-01-31T00:49:50;101669.94;;;3.40;100.00
26775;BME280;14362;51.902;7.626;2023-01-31T00:53:53;101668.53;;;3.38;100.00
26775;BME280;14362;51.902;7.626;2023-01-31T00:57:55;101669.91;;;3.35;100.00
26775;BME280;14362;51.902;7.626;2023-01-31T01:01:56;101676.72;;;3.33;100.00
26775;BME280;14362;51.902;7.626;2023-01-31T01:05:58;101681.91;;;3.29;100.00
26775;BME280;14362;51.902;7.626;2023-01-31T01:10:00;101675.81;;;3.27;100.00
26775;BME280;14362;51.902;7.626;2023-01-31T01:14:03;101670.31;;;3.27;100.00
26775;BME280;14362;51.902;7.626;2023-01-31T01:18:04;101677.31;;;3.35;100.00
26775;BME280;14362;51.902;7.626;2023-01-31T01:22:06;101676.22;;;3.36;100.00
26775;BME280;14362;51.902;7.626;2023-01-31T01:26:14;101664.03;;;3.32;100.00
26775;BME280;14362;51.902;7.626;2023-01-31T01:30:16;101671.16;;;3.28;100.00
26775;BME280;14362;51.902;7.626;2023-01-31T01:34:18;101673.00;;;3.22;100.00
26775;BME280;14362;51.902;7.626;2023-01-31T01:38:19;101669.59;;;3.15;100.00
26775;BME280;14362;51.902;7.626;2023-01-31T01:42:24;101680.03;;;3.13;100.00
26775;BME280;14362;51.902;7.626;2023-01-31T01:46:29;101679.94;;;3.08;100.00
26775;BME280;14362;51.902;7.626;2023-01-31T01:50:34;101673.84;;;3.06;100.00
26775;BME280;14362;51.902;7.626;2023-01-31T01:54:41;101664.97;;;3.00;100.00
26775;BME280;14362;51.902;7.626;2023-01-31T01:58:47;101673.13;;;2.95;100.00
26775;BME280;14362;51.902;7.626;2023-01-31T02:02:55;101686.31;;;2.93;100.00
26775;BME280;14362;51.902;7.626;2023-01-31T02:06:56;101688.75;;;2.89;100.00
26775;BME280;14362;51.902;7.626;2023-01-31T02:11:05;101688.97;;;2.88;100.00
26775;BME280;14362;51.902;7.626;2023-01-31T02:15:10;101695.56;;;2.87;100.00
26775;BME280;14362;51.902;7.626;2023-01-31T02:19:17;101705.00;;;2.91;100.00
26775;BME280;14362;51.902;7.626;2023-01-31T02:23:49;101708.34;;;2.93;100.00
26775;BME280;14362;51.902;7.626;2023-01-31T02:28:18;101716.03;;;2.91;100.00
26775;BME280;14362;51.902;7.626;2023-01-31T02:32:37;101715.69;;;2.87;100.00
26775;BME280;14362;51.902;7.626;2023-01-31T02:36:50;101711.75;;;2.83;100.00
26775;BME280;14362;51.902;7.626;2023-01-31T02:41:00;101709.19;;;2.77;100.00
26775;BME280;14362;51.902;7.626;2023-01-31T02:45:09;101721.00;;;2.77;100.00
26775;BME280;14362;51.902;7.626;2023-01-31T02:49:19;101717.13;;;2.73;100.00
26775;BME280;14362;51.902;7.626;2023-01-31T02:53:35;101710.50;;;2.74;100.00
26775;BME280;14362;51.902;7.626;2023-01-31T02:57:42;101709.59;;;2.69;100.00
26775;BME280;14362;51.902;7.626;2023-01-31T03:01:47;101700.75;;;2.67;100.00
26775;BME280;14362;51.902;7.626;2023-01-31T03:06:08;101674.31;;;2.66;100.00
26775;BME280;14362;51.902;7.626;2023-01-31T03:10:57;101665.22;;;2.65;100.00
26775;BME280;14362;51.902;7.626;2023-01-31T03:15:23;101666.56;;;2.63;100.00
26775;BME280;14362;51.902;7.626;2023-01-31T03:19:54;101667.38;;;2.63;100.00
26775;BME280;14362;51.902;7.626;2023-01-31T03:24:01;101670.47;;;2.67;100.00
26775;BME280;14362;51.902;7.626;2023-01-31T03:28:07;101649.53;;;2.66;100.00
26775;BME280;14362;51.902;7.626;2023-01-31T03:32:17;101655.03;;;2.66;100.00
26775;BME280;14362;51.902;7.626;2023-01-31T03:36:27;101648.53;;;2.72;100.00
26775;BME280;14362;51.902;7.626;2023-01-31T03:40:37;101640.03;;;2.73;100.00
26775;BME280;14362;51.902;7.626;2023-01-31T03:44:45;101635.69;;;2.77;100.00
26775;BME280;14362;51.902;7.626;2023-01-31T03:48:51;101632.75;;;2.84;100.00
26775;BME280;14362;51.902;7.626;2023-01-31T03:52:59;101629.75;;;2.85;100.00
26775;BME280;14362;51.902;7.626;2023-01-31T03:57:07;101625.66;;;2.88;100.00
26775;BME280;14362;51.902;7.626;2023-01-31T04:01:11;101620.16;;;2.88;100.00
26775;BME280;14362;51.902;7.626;2023-01-31T04:05:17;101620.41;;;2.86;100.00
26775;BME280;14362;51.902;7.626;2023-01-31T04:09:20;101622.09;;;2.87;100.00
26775;BME280;14362;51.902;7.626;2023-01-31T04:13:22;101615.53;;;2.93;100.00
26775;BME280;14362;51.902;7.626;2023-01-31T04:17:24;101612.28;;;2.96;100.00
26775;BME280;14362;51.902;7.626;2023-01-31T04:21:25;101614.53;;;2.99;100.00
26775;BME280;14362;51.902;7.626;2023-01-31T04:25:27;101605.28;;;3.05;100.00
26775;BME280;14362;51.902;7.626;2023-01-31T04:29:30;101607.25;;;3.09;100.00
26775;BME280;14362;51.902;7.626;2023-01-31T04:33:31;101602.91;;;3.13;100.00
26775;BME280;14362;51.902;7.626;2023-01-31T04:37:33;101601.81;;;3.14;100.00
26775;BME280;14362;51.902;7.626;2023-01-31T04:41:34;101606.63;;;3.24;100.00
26775;BME280;14362;51.902;7.626;2023-01-31T04:45:37;101611.66;;;3.27;100.00
26775;BME280;14362;51.902;7.626;2023-01-31T04:49:39;101607.03;;;3.32;100.00
26775;BME280;14362;51.902;7.626;2023-01-31T04:53:42;101610.38;;;3.34;100.00
26775;BME280;14362;51.902;7.626;2023-01-31T04:57:43;101599.97;;;3.41;100.00
26775;BME280;14362;51.902;7.626;2023-01-31T05:01:46;101590.03;;;3.40;100.00
26775;BME280;14362;51.902;7.626;2023-01-31T05:05:48;101584.06;;;3.48;100.00
26775;BME280;14362;51.902;7.626;2023-01-31T05:09:49;101577.22;;;3.51;100.00
26775;BME280;14362;51.902;7.626;2023-01-31T05:13:51;101558.50;;;3.53;100.00
26775;BME280;14362;51.902;7.626;2023-01-31T05:17:54;101555.72;;;3.53;100.00
26775;BME280;14362;51.902;7.626;2023-01-31T05:22:01;101530.69;;;3.54;100.00
26775;BME280;14362;51.902;7.626;2023-01-31T05:26:03;101513.56;;;3.52;100.00
26775;BME280;14362;51.902;7.626;2023-01-31T05:30:06;101501.53;;;3.58;100.00
26775;BME280;14362;51.902;7.626;2023-01-31T05:34:09;101505.09;;;3.59;100.00
26775;BME280;14362;51.902;7.626;2023-01-31T05:38:14;101491.88;;;3.61;100.00
26775;BME280;14362;51.902;7.626;2023-01-31T05:42:15;101501.56;;;3.63;100.00
26775;BME280;14362;51.902;7.626;2023-01-31T05:46:17;101485.38;;;3.72;100.00
26775;BME280;14362;51.902;7.626;2023-01-31T05:50:20;101489.53;;;3.74;100.00
26775;BME280;14362;51.902;7.626;2023-01-31T05:54:21;101479.63;;;3.78;100.00
26775;BME280;14362;51.902;7.626;2023-01-31T05:58:24;101470.38;;;3.89;100.00
26775;BME280;14362;51.902;7.626;2023-01-31T06:02:25;101462.34;;;3.88;100.00
26775;BME280;14362;51.902;7.626;2023-01-31T06:06:28;101454.91;;;3.88;100.00
26775;BME280;14362;51.902;7.626;2023-01-31T06:10:32;101464.59;;;3.91;100.00
26775;BME280;14362;51.902;7.626;2023-01-31T06:14:34;101460.25;;;4.00;100.00
26775;BME280;14362;51.902;7.626;2023-01-31T06:18:35;101469.97;;;4.07;100.00
26775;BME280;14362;51.902;7.626;2023-01-31T06:22:39;101483.53;;;4.13;100.00
26775;BME280;14362;51.902;7.626;2023-01-31T06:26:41;101471.97;;;4.16;100.00
26775;BME280;14362;51.902;7.626;2023-01-31T06:30:43;101495.72;;;4.17;100.00
26775;BME280;14362;51.902;7.626;2023-01-31T06:34:44;101491.00;;;4.18;100.00
26775;BME280;14362;51.902;7.626;2023-01-31T06:38:50;101484.16;;;4.20;100.00
26775;BME280;14362;51.902;7.626;2023-01-31T06:42:52;101484.69;;;4.17;100.00
26775;BME280;14362;51.902;7.626;2023-01-31T06:46:53;101494.09;;;4.26;100.00
26775;BME280;14362;51.902;7.626;2023-01-31T06:50:55;101497.19;;;4.30;100.00
26775;BME280;14362;51.902;7.626;2023-01-31T06:54:58;101503.53;;;4.30;100.00
26775;BME280;14362;51.902;7.626;2023-01-31T06:58:59;101508.25;;;4.35;100.00
26775;BME280;14362;51.902;7.626;2023-01-31T07:03:00;101495.28;;;4.35;100.00
26775;BME280;14362;51.902;7.626;2023-01-31T07:07:02;101486.50;;;4.38;100.00
26775;BME280;14362;51.902;7.626;2023-01-31T07:11:05;101488.09;;;4.34;100.00
26775;BME280;14362;51.902;7.626;2023-01-31T07:15:08;101491.44;;;4.36;100.00
26775;BME280;14362;51.902;7.626;2023-01-31T07:19:09;101479.31;;;4.37;100.00
26775;BME280;14362;51.902;7.626;2023-01-31T07:23:11;101491.69;;;4.35;100.00
26775;BME280;14362;51.902;7.626;2023-01-31T07:27:14;101471.31;;;4.41;100.00
26775;BME280;14362;51.902;7.626;2023-01-31T07:31:16;101476.25;;;4.39;100.00
26775;BME280;14362;51.902;7.626;2023-01-31T07:35:17;101480.44;;;4.41;100.00
26775;BME280;14362;51.902;7.626;2023-01-31T07:39:18;101478.31;;;4.53;100.00
26775;BME280;14362;51.902;7.626;2023-01-31T07:43:21;101476.06;;;4.50;100.00
26775;BME280;14362;51.902;7.626;2023-01-31T07:47:23;101462.59;;;4.59;100.00
26775;BME280;14362;51.902;7.626;2023-01-31T07:51:24;101473.06;;;4.57;100.00
26775;BME280;14362;51.902;7.626;2023-01-31T07:55:26;101465.38;;;4.64;100.00
26775;BME280;14362;51.902;7.626;2023-01-31T07:59:28;101457.94;;;4.69;100.00
26775;BME280;14362;51.902;7.626;2023-01-31T08:03:30;101443.34;;;4.74;100.00
26775;BME280;14362;51.902;7.626;2023-01-31T08:07:35;101444.75;;;4.76;100.00
26775;BME280;14362;51.902;7.626;2023-01-31T08:11:37;101434.53;;;4.82;100.00
26775;BME280;14362;51.902;7.626;2023-01-31T08:15:40;101436.75;;;4.80;100.00
26775;BME280;14362;51.902;7.626;2023-01-31T08:19:41;101426.78;;;4.74;100.00
26775;BME280;14362;51.902;7.626;2023-01-31T08:23:42;101423.47;;;4.72;100.00
26775;BME280;14362;51.902;7.626;2023-01-31T08:27:44;101407.44;;;4.74;100.00
26775;BME280;14362;51.902;7.626;2023-01-31T08:31:47;101414.63;;;4.75;100.00
26775;BME280;14362;51.902;7.626;2023-01-31T08:35:48;101412.16;;;4.73;100.00
26775;BME280;14362;51.902;7.626;2023-01-31T08:39:50;101404.69;;;4.69;100.00
26775;BME280;14362;51.902;7.626;2023-01-31T08:43:51;101393.06;;;4.67;100.00
26775;BME280;14362;51.902;7.626;2023-01-31T08:47:58;101386.44;;;4.68;100.00
26775;BME280;14362;51.902;7.626;2023-01-31T08:51:59;101380.13;;;4.77;100.00
26775;BME280;14362;51.902;7.626;2023-01-31T08:56:03;101367.16;;;4.83;100.00
26775;BME280;14362;51.902;7.626;2023-01-31T09:00:06;101351.66;;;4.77;100.00
26775;BME280;14362;51.902;7.626;2023-01-31T09:04:09;101351.97;;;4.75;100.00
26775;BME280;14362;51.902;7.626;2023-01-31T09:08:11;101353.34;;;4.78;100.00
26775;BME280;14362;51.902;7.626;2023-01-31T09:12:13;101364.41;;;4.83;100.00
26775;BME280;14362;51.902;7.626;2023-01-31T09:16:14;101360.53;;;4.84;100.00
26775;BME280;14362;51.902;7.626;2023-01-31T09:20:17;101362.19;;;4.85;100.00
26775;BME280;14362;51.902;7.626;2023-01-31T09:24:19;101346.75;;;4.89;100.00
26775;BME280;14362;51.902;7.626;2023-01-31T09:28:20;101348.41;;;4.95;100.00
26775;BME280;14362;51.902;7.626;2023-01-31T09:32:22;101360.31;;;5.05;100.00
26775;BME280;14362;51.902;7.626;2023-01-31T09:36:25;101350.91;;;5.06;100.00
26775;BME280;14362;51.902;7.626;2023-01-31T09:40:31;101357.28;;;5.06;100.00
26775;BME280;14362;51.902;7.626;2023-01-31T09:44:37;101350.09;;;5.05;100.00
26775;BME280;14362;51.902;7.626;2023-01-31T09:48:42;101334.63;;;5.04;100.00
26775;BME280;14362;51.902;7.626;2023-01-31T09:52:47;101331.59;;;5.06;100.00
26775;BME280;14362;51.902;7.626;2023-01-31T09:56:57;101323.03;;;5.07;100.00
26775;BME280;14362;51.902;7.626;2023-01-31T10:01:08;101335.47;;;5.15;100.00
26775;BME280;14362;51.902;7.626;2023-01-31T10:05:19;101325.78;;;5.17;100.00
26775;BME280;14362;51.902;7.626;2023-01-31T10:09:28;101343.50;;;5.21;100.00
26775;BME280;14362;51.902;7.626;2023-01-31T10:13:35;101337.41;;;5.19;100.00
26775;BME280;14362;51.902;7.626;2023-01-31T10:17:42;101344.63;;;5.25;100.00
26775;BME280;14362;51.902;7.626;2023-01-31T10:21:49;101333.56;;;5.25;100.00
26775;BME280;14362;51.902;7.626;2023-01-31T10:25:58;101325.25;;;5.30;100.00
26775;BME280;14362;51.902;7.626;2023-01-31T10:30:02;101304.78;;;5.31;100.00
26775;BME280;14362;51.902;7.626;2023-01-31T10:34:09;101318.91;;;5.45;100.00
26775;BME280;14362;51.902;7.626;2023-01-31T10:38:16;101304.81;;;5.41;100.00
26775;BME280;14362;51.902;7.626;2023-01-31T10:42:26;101305.38;;;5.43;100.00
26775;BME280;14362;51.902;7.626;2023-01-31T10:46:30;101294.28;;;5.48;100.00
26775;BME280;14362;51.902;7.626;2023-01-31T10:50:40;101293.75;;;5.41;100.00
26775;BME280;14362;51.902;7.626;2023-01-31T10:54:52;101275.22;;;5.42;100.00
26775;BME280;14362;51.902;7.626;2023-01-31T10:59:04;101270.78;;;5.41;100.00
26775;BME280;14362;51.902;7.626;2023-01-31T11:03:09;101275.50;;;5.45;100.00
26775;BME280;14362;51.902;7.626;2023-01-31T11:07:11;101274.97;;;5.43;100.00
26775;BME280;14362;51.902;7.626;2023-01-31T11:11:15;101277.44;;;5.45;100.00
26775;BME280;14362;51.902;7.626;2023-01-31T11:15:19;101267.22;;;5.45;100.00
26775;BME280;14362;51.902;7.626;2023-01-31T11:19:29;101249.78;;;5.50;100.00
26775;BME280;14362;51.902;7.626;2023-01-31T11:23:33;101238.47;;;5.46;100.00
26775;BME280;14362;51.902;7.626;2023-01-31T11:27:37;101240.38;;;5.56;100.00
26775;BME280;14362;51.902;7.626;2023-01-31T11:31:41;101237.63;;;5.56;100.00
26775;BME280;14362;51.902;7.626;2023-01-31T11:35:50;101237.88;;;5.64;100.00
26775;BME280;14362;51.902;7.626;2023-01-31T11:39:56;101247.84;;;5.65;100.00
26775;BME280;14362;51.902;7.626;2023-01-31T11:44:11;101231.50;;;5.74;100.00
26775;BME280;14362;51.902;7.626;2023-01-31T11:48:17;101233.41;;;5.73;100.00
26775;BME280;14362;51.902;7.626;2023-01-31T11:52:21;101230.69;;;5.78;100.00
26775;BME280;14362;51.902;7.626;2023-01-31T11:56:30;101215.44;;;5.86;100.00
26775;BME280;14362;51.902;7.626;2023-01-31T12:00:34;101220.13;;;5.90;100.00
26775;BME280;14362;51.902;7.626;2023-01-31T12:04:42;101212.13;;;5.89;100.00
26775;BME280;14362;51.902;7.626;2023-01-31T12:08:43;101188.84;;;5.95;100.00
26775;BME280;14362;51.902;7.626;2023-01-31T12:12:44;101183.56;;;6.03;100.00
26775;BME280;14362;51.902;7.626;2023-01-31T12:16:47;101173.53;;;6.12;100.00
26775;BME280;14362;51.902;7.626;2023-01-31T12:20:58;101168.31;;;6.10;100.00
26775;BME280;14362;51.902;7.626;2023-01-31T12:25:11;101165.22;;;6.22;100.00
26775;BME280;14362;51.902;7.626;2023-01-31T12:29:25;101166.56;;;6.24;100.00
26775;BME280;14362;51.902;7.626;2023-01-31T12:33:38;101165.78;;;6.14;100.00
26775;BME280;14362;51.902;7.626;2023-01-31T12:37:53;101160.25;;;6.14;100.00
26775;BME280;14362;51.902;7.626;2023-01-31T12:42:10;101150.88;;;6.10;100.00
26775;BME280;14362;51.902;7.626;2023-01-31T12:46:21;101155.53;;;6.14;100.00
26775;BME280;14362;51.902;7.626;2023-01-31T12:50:28;101163.03;;;6.09;100.00
26775;BME280;14362;51.902;7.626;2023-01-31T12:54:55;101149.75;;;6.11;100.00
26775;BME280;14362;51.902;7.626;2023-01-31T12:59:03;101163.34;;;6.07;100.00
26775;BME280;14362;51.902;7.626;2023-01-31T13:03:30;101163.06;;;6.04;100.00
26775;BME280;14362;51.902;7.626;2023-01-31T13:07:39;101172.75;;;6.02;100.00
26775;BME280;14362;51.902;7.626;2023-01-31T13:11:47;101168.34;;;6.01;100.00
26775;BME280;14362;51.902;7.626;2023-01-31T13:15:53;101165.00;;;6.04;100.00
26775;BME280;14362;51.902;7.626;2023-01-31T13:19:56;101171.34;;;6.04;100.00
26775;BME280;14362;51.902;7.626;2023-01-31T13:24:02;101173.06;;;6.00;100.00
26775;BME280;14362;51.902;7.626;2023-01-31T13:28:12;101163.09;;;5.99;100.00
26775;BME280;14362;51.902;7.626;2023-01-31T13:32:20;101157.84;;;5.98;100.00
26775;BME280;14362;51.902;7.626;2023-01-31T13:36:28;101161.16;;;6.00;100.00
26775;BME280;14362;51.902;7.626;2023-01-31T13:40:36;101148.72;;;5.97;100.00
26775;BME280;14362;51.902;7.626;2023-01-31T13:44:40;101155.38;;;5.96;100.00
26775;BME280;14362;51.902;7.626;2023-01-31T13:48:46;101146.78;;;5.98;100.00
26775;BME280;14362;51.902;7.626;2023-01-31T13:52:53;101144.00;;;6.03;100.00
26775;BME280;14362;51.902;7.626;2023-01-31T13:56:58;101149.22;;;6.04;100.00
26775;BME280;14362;51.902;7.626;2023-01-31T14:01:04;101143.44;;;6.01;100.00
26775;BME280;14362;51.902;7.626;2023-01-31T14:14:37;101136.53;;;5.98;100.00
26775;BME280;14362;51.902;7.626;2023-01-31T14:18:43;101138.75;;;6.01;100.00
26775;BME280;14362;51.902;7.626;2023-01-31T14:27:26;101157.25;;;6.06;100.00
26775;BME280;14362;51.902;7.626;2023-01-31T14:31:28;101151.44;;;6.07;100.00
26775;BME280;14362;51.902;7.626;2023-01-31T14:40:15;101150.00;;;6.14;100.00
26775;BME280;14362;51.902;7.626;2023-01-31T14:44:28;101153.84;;;6.23;100.00
26775;BME280;14362;51.902;7.626;2023-01-31T14:48:54;101155.19;;;6.26;100.00
26775;BME280;14362;51.902;7.626;2023-01-31T14:53:16;101151.84;;;6.34;100.00
26775;BME280;14362;51.902;7.626;2023-01-31T14:57:23;101161.22;;;6.38;100.00
26775;BME280;14362;51.902;7.626;2023-01-31T15:01:32;101156.47;;;6.43;100.00
26775;BME280;14362;51.902;7.626;2023-01-31T15:05:40;101160.03;;;6.49;100.00
26775;BME280;14362;51.902;7.626;2023-01-31T15:09:44;101155.59;;;6.48;100.00
26775;BME280;14362;51.902;7.626;2023-01-31T15:13:49;101160.88;;;6.49;100.00
26775;BME280;14362;51.902;7.626;2023-01-31T15:17:52;101157.81;;;6.51;100.00
26775;BME280;14362;51.902;7.626;2023-01-31T15:22:01;101152.50;;;6.54;100.00
26775;BME280;14362;51.902;7.626;2023-01-31T15:26:05;101166.63;;;6.58;100.00
26775;BME280;14362;51.902;7.626;2023-01-31T15:30:14;101157.22;;;6.59;100.00
26775;BME280;14362;51.902;7.626;2023-01-31T15:34:20;101161.31;;;6.66;100.00
26775;BME280;14362;51.902;7.626;2023-01-31T15:38:26;101154.13;;;6.65;100.00
26775;BME280;14362;51.902;7.626;2023-01-31T15:42:32;101154.91;;;6.66;100.00
26775;BME280;14362;51.902;7.626;2023-01-31T15:46:33;101162.31;;;6.75;100.00
26775;BME280;14362;51.902;7.626;2023-01-31T15:50:35;101171.81;;;6.69;100.00
26775;BME280;14362;51.902;7.626;2023-01-31T15:54:37;101169.53;;;6.76;100.00
26775;BME280;14362;51.902;7.626;2023-01-31T15:58:45;101172.88;;;6.73;100.00
26775;BME280;14362;51.902;7.626;2023-01-31T16:02:47;101165.03;;;6.85;100.00
26775;BME280;14362;51.902;7.626;2023-01-31T16:06:49;101180.03;;;6.79;100.00
26775;BME280;14362;51.902;7.626;2023-01-31T16:10:51;101178.34;;;6.83;100.00
26775;BME280;14362;51.902;7.626;2023-01-31T16:14:57;101186.94;;;6.82;100.00
26775;BME280;14362;51.902;7.626;2023-01-31T16:19:02;101169.50;;;6.81;100.00
26775;BME280;14362;51.902;7.626;2023-01-31T16:23:04;101175.00;;;6.86;100.00
26775;BME280;14362;51.902;7.626;2023-01-31T16:27:10;101178.56;;;6.92;100.00
26775;BME280;14362;51.902;7.626;2023-01-31T16:31:16;101175.47;;;6.93;100.00
26775;BME280;14362;51.902;7.626;2023-01-31T16:35:22;101169.69;;;6.90;100.00
26775;BME280;14362;51.902;7.626;2023-01-31T16:39:32;101170.25;;;6.92;100.00
26775;BME280;14362;51.902;7.626;2023-01-31T16:43:36;101183.47;;;7.00;100.00
26775;BME280;14362;51.902;7.626;2023-01-31T16:47:47;101201.50;;;6.97;100.00
26775;BME280;14362;51.902;7.626;2023-01-31T16:51:53;101195.16;;;6.97;100.00
26775;BME280;14362;51.902;7.626;2023-01-31T16:56:14;101201.16;;;7.04;100.00
26775;BME280;14362;51.902;7.626;2023-01-31T17:00:31;101206.13;;;7.07;100.00
26775;BME280;14362;51.902;7.626;2023-01-31T17:04:37;101204.22;;;7.07;100.00
26775;BME280;14362;51.902;7.626;2023-01-31T17:08:40;101203.56;;;7.15;100.00
26775;BME280;14362;51.902;7.626;2023-01-31T17:12:42;101209.69;;;7.12;100.00
26775;BME280;14362;51.902;7.626;2023-01-31T17:16:44;101211.38;;;7.08;100.00
26775;BME280;14362;51.902;7.626;2023-01-31T17:20:47;101203.41;;;7.02;100.00
26775;BME280;14362;51.902;7.626;2023-01-31T17:24:50;101197.94;;;6.92;100.00
26775;BME280;14362;51.902;7.626;2023-01-31T17:28:51;101202.97;;;6.85;100.00
26775;BME280;14362;51.902;7.626;2023-01-31T17:32:53;101197.19;;;6.81;100.00
26775;BME280;14362;51.902;7.626;2023-01-31T17:36:57;101202.44;;;6.83;100.00
26775;BME280;14362;51.902;7.626;2023-01-31T17:40:59;101194.47;;;6.76;100.00
26775;BME280;14362;51.902;7.626;2023-01-31T17:45:00;101204.75;;;6.71;100.00
26775;BME280;14362;51.902;7.626;2023-01-31T17:49:01;101213.63;;;6.68;100.00
26775;BME280;14362;51.902;7.626;2023-01-31T17:53:04;101209.41;;;6.75;100.00
26775;BME280;14362;51.902;7.626;2023-01-31T17:57:06;101207.75;;;6.74;100.00
26775;BME280;14362;51.902;7.626;2023-01-31T18:01:07;101213.56;;;6.78;100.00
26775;BME280;14362;51.902;7.626;2023-01-31T18:05:11;101223.50;;;6.84;100.00
26775;BME280;14362;51.902;7.626;2023-01-31T18:09:14;101233.47;;;6.85;100.00
26775;BME280;14362;51.902;7.626;2023-01-31T18:13:17;101232.66;;;6.84;100.00
26775;BME280;14362;51.902;7.626;2023-01-31T18:17:19;101220.44;;;6.85;100.00
26775;BME280;14362;51.902;7.626;2023-01-31T18:21:21;101237.28;;;6.94;100.00
26775;BME280;14362;51.902;7.626;2023-01-31T18:25:24;101239.28;;;6.88;100.00
26775;BME280;14362;51.902;7.626;2023-01-31T18:29:26;101237.06;;;6.85;100.00
26775;BME280;14362;51.902;7.626;2023-01-31T18:33:28;101233.75;;;6.83;100.00
26775;BME280;14362;51.902;7.626;2023-01-31T18:37:29;101232.09;;;6.82;100.00
26775;BME280;14362;51.902;7.626;2023-01-31T18:41:32;101234.09;;;6.77;100.00
26775;BME280;14362;51.902;7.626;2023-01-31T18:45:36;101239.13;;;6.65;100.00
26775;BME280;14362;51.902;7.626;2023-01-31T18:49:37;101236.66;;;6.63;100.00
26775;BME280;14362;51.902;7.626;2023-01-31T18:53:40;101243.34;;;6.52;100.00
26775;BME280;14362;51.902;7.626;2023-01-31T18:57:43;101248.38;;;6.50;100.00
26775;BME280;14362;51.902;7.626;2023-01-31T19:01:44;101253.94;;;6.45;100.00
26775;BME280;14362;51.902;7.626;2023-01-31T19:05:46;101253.13;;;6.40;100.00
26775;BME280;14362;51.902;7.626;2023-01-31T19:09:47;101250.38;;;6.35;100.00
26775;BME280;14362;51.902;7.626;2023-01-31T19:13:50;101245.97;;;6.29;100.00
26775;BME280;14362;51.902;7.626;2023-01-31T19:17:52;101254.25;;;6.34;100.00
26775;BME280;14362;51.902;7.626;2023-01-31T19:21:53;101267.88;;;6.25;100.00
26775;BME280;14362;51.902;7.626;2023-01-31T19:25:55;101270.41;;;6.12;100.00
26775;BME280;14362;51.902;7.626;2023-01-31T19:29:58;101271.53;;;6.06;100.00
26775;BME280;14362;51.902;7.626;2023-01-31T19:34:01;101275.69;;;6.04;100.00
26775;BME280;14362;51.902;7.626;2023-01-31T19:38:04;101275.44;;;5.95;100.00
26775;BME280;14362;51.902;7.626;2023-01-31T19:42:06;101270.47;;;5.87;100.00
26775;BME280;14362;51.902;7.626;2023-01-31T19:46:09;101269.41;;;5.78;100.00
26775;BME280;14362;51.902;7.626;2023-01-31T19:50:10;101271.59;;;5.76;100.00
26775;BME280;14362;51.902;7.626;2023-01-31T19:54:13;101275.47;;;5.70;100.00
26775;BME280;14362;51.902;7.626;2023-01-31T19:58:15;101280.44;;;5.68;100.00
26775;BME280;14362;51.902;7.626;2023-01-31T20:02:18;101273.25;;;5.67;100.00
26775;BME280;14362;51.902;7.626;2023-01-31T20:06:21;101276.84;;;5.63;100.00
26775;BME280;14362;51.902;7.626;2023-01-31T20:10:24;101282.38;;;5.68;100.00
26775;BME280;14362;51.902;7.626;2023-01-31T20:14:26;101277.97;;;5.62;100.00
26775;BME280;14362;51.902;7.626;2023-01-31T20:18:30;101284.91;;;5.64;100.00
26775;BME280;14362;51.902;7.626;2023-01-31T20:22:32;101281.56;;;5.57;100.00
26775;BME280;14362;51.902;7.626;2023-01-31T20:26:36;101268.56;;;5.58;100.00
26775;BME280;14362;51.902;7.626;2023-01-31T20:30:39;101276.03;;;5.57;100.00
26775;BME280;14362;51.902;7.626;2023-01-31T20:34:42;101264.72;;;5.54;100.00
26775;BME280;14362;51.902;7.626;2023-01-31T20:38:44;101272.47;;;5.52;100.00
26775;BME280;14362;51.902;7.626;2023-01-31T20:42:45;101274.38;;;5.51;100.00
26775;BME280;14362;51.902;7.626;2023-01-31T20:46:47;101265.81;;;5.43;100.00
26775;BME280;14362;51.902;7.626;2023-01-31T20:50:59;101274.66;;;5.40;100.00
26775;BME280;14362;51.902;7.626;2023-01-31T20:55:00;101277.16;;;5.41;100.00
26775;BME280;14362;51.902;7.626;2023-01-31T20:59:02;101289.31;;;5.35;100.00
26775;BME280;14362;51.902;7.626;2023-01-31T21:03:03;101284.63;;;5.31;100.00
26775;BME280;14362;51.902;7.626;2023-01-31T21:07:06;101275.78;;;5.29;100.00
26775;BME280;14362;51.902;7.626;2023-01-31T21:11:09;101274.69;;;5.25;100.00
26775;BME280;14362;51.902;7.626;2023-01-31T21:15:13;101260.59;;;5.21;100.00
26775;BME280;14362;51.902;7.626;2023-01-31T21:19:14;101271.09;;;5.24;100.00
26775;BME280;14362;51.902;7.626;2023-01-31T21:23:17;101256.72;;;5.22;100.00
26775;BME280;14362;51.902;7.626;2023-01-31T21:27:18;101266.94;;;5.22;100.00
26775;BME280;14362;51.902;7.626;2023-01-31T21:31:20;101261.97;;;5.24;100.00
26775;BME280;14362;51.902;7.626;2023-01-31T21:35:21;101266.94;;;5.27;100.00
26775;BME280;14362;51.902;7.626;2023-01-31T21:39:24;101266.13;;;5.21;100.00